Time;durP1;ratioP1;P1;durP2;ratioP2;P2;SDS_P1;SDS_P2;PMS_P1;PMS_P2;Temp;Humidity;BMP_temperature;BMP_pressure;BME280_temperature;BME280_humidity;BME280_pressure;Samples;Min_cycle;Max_cycle;Signal;HPM_P1;HPM_P2
2023/06/28 00:01:59;;;;;;;7.83;2.90;;;17.90;26.30;;;;;;5056622;28;20407;-75
2023/06/28 00:04:25;;;;;;;6.33;2.70;;;17.90;26.50;;;;;;5074210;28;20425;-75
2023/06/28 00:06:50;;;;;;;7.05;2.70;;;17.90;26.50;;;;;;5059650;28;20410;-76
2023/06/28 00:09:16;;;;;;;7.37;2.40;;;17.80;26.70;;;;;;5078585;28;20383;-76
2023/06/28 00:11:41;;;;;;;5.00;2.40;;;17.80;26.70;;;;;;5077578;28;20384;-75
2023/06/28 00:14:07;;;;;;;10.18;2.45;;;17.80;26.80;;;;;;5060264;28;20418;-75
2023/06/28 00:16:33;;;;;;;4.93;2.23;;;17.70;27.10;;;;;;5078605;28;20388;-75
2023/06/28 00:19:00;;;;;;;7.23;2.50;;;17.80;27.20;;;;;;5077643;28;20940;-77
2023/06/28 00:21:26;;;;;;;5.30;2.60;;;17.80;27.00;;;;;;5077654;28;20452;-76
2023/06/28 00:23:52;;;;;;;5.75;2.47;;;17.80;27.60;;;;;;5079233;28;20379;-75
2023/06/28 00:26:17;;;;;;;8.45;2.80;;;17.80;27.00;;;;;;5079573;28;20435;-75
2023/06/28 00:28:43;;;;;;;5.83;2.50;;;17.80;27.30;;;;;;5080723;28;20763;-76
2023/06/28 00:31:08;;;;;;;8.53;2.90;;;17.80;27.40;;;;;;5079525;28;20494;-76
2023/06/28 00:33:34;;;;;;;8.35;3.03;;;17.80;27.50;;;;;;5079022;28;20380;-75
2023/06/28 00:35:59;;;;;;;7.80;2.80;;;17.80;27.70;;;;;;5078770;28;20856;-75
2023/06/28 00:38:25;;;;;;;9.50;3.00;;;17.70;27.80;;;;;;5078125;28;20384;-74
2023/06/28 00:40:51;;;;;;;7.40;3.10;;;17.70;28.30;;;;;;5077673;28;20384;-74
2023/06/28 00:43:16;;;;;;;7.95;3.10;;;17.50;28.70;;;;;;5078637;28;20399;-77
2023/06/28 00:45:42;;;;;;;6.63;2.50;;;17.50;29.00;;;;;;5077855;28;20403;-76
2023/06/28 00:48:08;;;;;;;9.47;2.83;;;17.50;29.20;;;;;;5059618;28;20427;-75
2023/06/28 00:50:36;;;;;;;8.35;2.55;;;17.50;29.30;;;;;;5077734;28;20383;-76
2023/06/28 00:53:02;;;;;;;7.75;2.80;;;17.40;29.50;;;;;;5077554;28;20380;-76
2023/06/28 00:55:28;;;;;;;5.72;2.60;;;17.40;29.50;;;;;;5076557;28;20394;-76
2023/06/28 00:57:53;;;;;;;7.43;2.50;;;17.40;29.40;;;;;;5076990;28;20872;-75
2023/06/28 01:00:19;;;;;;;7.38;2.80;;;17.40;29.50;;;;;;5076368;28;20384;-76
2023/06/28 01:02:45;;;;;;;8.60;2.80;;;17.30;29.70;;;;;;5075713;28;20388;-76
2023/06/28 01:05:15;;;;;;;8.37;2.90;;;17.30;29.80;;;;;;5075163;28;20444;-76
2023/06/28 01:07:43;;;;;;;5.27;2.63;;;17.30;29.90;;;;;;5076468;28;20380;-76
2023/06/28 01:10:09;;;;;;;7.40;3.00;;;17.20;30.00;;;;;;5076175;28;20423;-76
2023/06/28 01:12:35;;;;;;;7.70;3.23;;;17.30;30.30;;;;;;5077016;28;20434;-77
2023/06/28 01:15:02;;;;;;;12.20;3.25;;;17.20;30.90;;;;;;5083959;28;20388;-77
2023/06/28 01:17:27;;;;;;;10.07;2.88;;;17.20;30.70;;;;;;5081696;28;20388;-75
2023/06/28 01:19:54;;;;;;;8.40;3.10;;;17.10;30.90;;;;;;5076614;28;20384;-77
2023/06/28 01:22:20;;;;;;;6.07;3.20;;;17.00;31.10;;;;;;5076510;28;20417;-75
2023/06/28 01:24:46;;;;;;;7.05;3.08;;;17.00;31.20;;;;;;5076420;28;20431;-75
2023/06/28 01:27:13;;;;;;;6.50;2.58;;;17.00;31.00;;;;;;5076245;28;20384;-76
2023/06/28 01:29:40;;;;;;;5.82;2.83;;;17.00;31.20;;;;;;5075947;28;20414;-77
2023/06/28 01:32:06;;;;;;;10.32;3.10;;;17.00;31.30;;;;;;5075739;28;20376;-76
2023/06/28 01:34:31;;;;;;;6.85;3.10;;;16.90;31.60;;;;;;5075801;28;20384;-76
2023/06/28 01:37:00;;;;;;;8.25;2.80;;;16.90;31.60;;;;;;5058187;28;20384;-75
2023/06/28 01:39:28;;;;;;;7.65;3.22;;;16.90;31.60;;;;;;5076926;28;20372;-77
2023/06/28 01:41:54;;;;;;;6.80;3.13;;;17.00;31.80;;;;;;5074984;28;20451;-75
2023/06/28 01:44:22;;;;;;;5.97;2.83;;;17.00;31.90;;;;;;5075004;28;20388;-76
2023/06/28 01:46:49;;;;;;;5.97;2.90;;;17.00;32.00;;;;;;5075291;28;20534;-75
2023/06/28 01:49:15;;;;;;;7.10;3.15;;;17.00;31.80;;;;;;5075342;28;20407;-74
2023/06/28 01:51:41;;;;;;;10.57;3.20;;;17.00;31.90;;;;;;5074979;28;20448;-76
2023/06/28 01:54:07;;;;;;;6.72;2.90;;;16.90;32.00;;;;;;5074469;28;20384;-75
2023/06/28 01:56:32;;;;;;;7.27;3.23;;;16.80;32.40;;;;;;5056784;28;20903;-77
2023/06/28 01:58:58;;;;;;;9.18;3.28;;;16.80;32.40;;;;;;5074789;28;20431;-75
2023/06/28 02:01:24;;;;;;;8.43;2.97;;;16.70;32.70;;;;;;5074856;28;20483;-75
2023/06/28 02:03:49;;;;;;;8.30;3.30;;;16.70;33.60;;;;;;5063137;28;20879;-74
2023/06/28 02:06:15;;;;;;;8.67;3.20;;;16.60;33.20;;;;;;5080247;28;20421;-76
2023/06/28 02:08:41;;;;;;;6.63;3.30;;;16.60;33.40;;;;;;5078080;28;20894;-76
2023/06/28 02:11:06;;;;;;;6.93;3.00;;;16.60;33.40;;;;;;5078398;28;20419;-75
2023/06/28 02:13:32;;;;;;;5.93;2.80;;;16.70;33.30;;;;;;5075470;28;20410;-75
2023/06/28 02:15:58;;;;;;;6.17;2.83;;;16.70;33.20;;;;;;5077543;28;20375;-76
2023/06/28 02:18:24;;;;;;;5.22;2.75;;;16.70;33.30;;;;;;5080666;28;20875;-76
2023/06/28 02:20:51;;;;;;;6.53;3.20;;;16.50;34.10;;;;;;5080483;28;20391;-75
2023/06/28 02:23:17;;;;;;;6.93;3.20;;;16.50;34.10;;;;;;5062326;28;20407;-76
2023/06/28 02:25:44;;;;;;;8.48;3.65;;;16.40;34.20;;;;;;5076522;28;20459;-75
2023/06/28 02:28:10;;;;;;;6.78;3.13;;;16.20;35.20;;;;;;5074663;28;20394;-74
2023/06/28 02:30:35;;;;;;;4.47;2.90;;;16.10;36.20;;;;;;5075671;28;20400;-76
2023/06/28 02:33:01;;;;;;;6.83;3.30;;;16.10;36.80;;;;;;5080129;28;20376;-76
2023/06/28 02:35:27;;;;;;;8.40;3.10;;;16.00;37.00;;;;;;5080069;28;20396;-76
2023/06/28 02:37:52;;;;;;;8.00;3.00;;;16.00;37.00;;;;;;5077126;28;20533;-76
2023/06/28 02:40:18;;;;;;;7.18;3.25;;;15.90;37.50;;;;;;5073624;28;20391;-76
2023/06/28 02:42:44;;;;;;;13.05;3.60;;;15.80;37.90;;;;;;5074498;28;20475;-75
2023/06/28 02:45:10;;;;;;;8.48;3.60;;;15.80;38.20;;;;;;5076915;28;20517;-76
2023/06/28 02:47:37;;;;;;;6.88;3.10;;;15.90;38.40;;;;;;5078124;28;20422;-77
2023/06/28 02:50:05;;;;;;;8.90;3.58;;;15.90;38.30;;;;;;5077956;28;20787;-74
2023/06/28 02:52:32;;;;;;;6.27;3.50;;;15.90;38.20;;;;;;5073761;28;20801;-76
2023/06/28 02:54:57;;;;;;;5.35;2.72;;;15.90;38.20;;;;;;5073823;28;20391;-75
2023/06/28 02:57:24;;;;;;;5.77;3.20;;;16.00;38.20;;;;;;5073774;28;20432;-75
2023/06/28 02:59:49;;;;;;;6.82;3.20;;;16.10;37.90;;;;;;5074083;28;20384;-76
2023/06/28 03:02:15;;;;;;;7.33;3.33;;;16.20;37.70;;;;;;5073878;28;20857;-75
2023/06/28 03:04:41;;;;;;;6.32;2.70;;;16.20;37.90;;;;;;5074473;28;20394;-76
2023/06/28 03:07:17;;;;;;;8.95;3.20;;;16.20;38.00;;;;;;5056379;28;20376;-74
2023/06/28 03:09:43;;;;;;;6.28;3.50;;;16.30;37.80;;;;;;5075609;28;20403;-75
2023/06/28 03:12:10;;;;;;;6.60;3.53;;;16.40;36.80;;;;;;5074481;28;20376;-74
2023/06/28 03:14:35;;;;;;;8.73;3.55;;;16.50;36.50;;;;;;5074200;28;20411;-75
2023/06/28 03:17:01;;;;;;;8.10;3.23;;;16.60;36.30;;;;;;5074760;28;20379;-74
2023/06/28 03:19:27;;;;;;;8.85;3.90;;;16.70;36.00;;;;;;5075031;28;20391;-77
2023/06/28 03:21:52;;;;;;;9.85;4.18;;;16.80;35.30;;;;;;5072088;28;20410;-76
2023/06/28 03:24:18;;;;;;;8.20;3.40;;;16.80;35.50;;;;;;5070289;28;20440;-76
2023/06/28 03:26:43;;;;;;;7.90;3.40;;;16.80;35.30;;;;;;5053954;28;20411;-76
2023/06/28 03:29:09;;;;;;;11.13;3.60;;;16.80;34.30;;;;;;5071633;28;20394;-76
2023/06/28 03:31:34;;;;;;;8.43;3.20;;;16.90;33.70;;;;;;5073118;28;20409;-75
2023/06/28 03:34:00;;;;;;;11.13;3.10;;;17.00;33.10;;;;;;5072216;28;20376;-76
2023/06/28 03:36:27;;;;;;;4.95;3.10;;;17.00;33.10;;;;;;5054363;28;20372;-77
2023/06/28 03:38:53;;;;;;;6.70;3.10;;;17.10;33.10;;;;;;5054392;28;20460;-77
2023/06/28 03:41:19;;;;;;;8.45;3.10;;;17.40;32.40;;;;;;5056597;28;20833;-76
2023/06/28 03:43:44;;;;;;;5.60;2.80;;;17.20;32.10;;;;;;5076333;28;20448;-76
2023/06/28 03:46:10;;;;;;;7.97;3.10;;;17.10;32.50;;;;;;5075436;28;20407;-77
2023/06/28 03:48:36;;;;;;;5.40;3.08;;;17.00;33.10;;;;;;5076649;28;20740;-75
2023/06/28 03:51:01;;;;;;;8.50;3.60;;;17.00;32.80;;;;;;5075739;28;20379;-76
2023/06/28 03:53:27;;;;;;;7.40;2.83;;;17.20;32.50;;;;;;5057162;28;20380;-75
2023/06/28 03:55:53;;;;;;;10.60;3.20;;;17.30;31.80;;;;;;5074691;28;20391;-76
2023/06/28 03:58:19;;;;;;;9.35;4.45;;;17.60;30.90;;;;;;5075238;28;20890;-76
2023/06/28 04:00:44;;;;;;;7.85;3.53;;;17.60;30.70;;;;;;5075828;28;20384;-75
2023/06/28 04:03:10;;;;;;;6.00;3.10;;;17.50;31.20;;;;;;5074032;28;20476;-76
2023/06/28 04:05:35;;;;;;;5.20;2.70;;;17.40;31.60;;;;;;5074833;28;20426;-75
2023/06/28 04:08:02;;;;;;;8.53;2.90;;;17.30;31.80;;;;;;5075185;28;20384;-76
2023/06/28 04:10:27;;;;;;;5.70;2.57;;;17.40;31.40;;;;;;5074535;28;20390;-77
2023/06/28 04:12:53;;;;;;;6.20;2.80;;;17.40;31.50;;;;;;5076017;28;20379;-75
2023/06/28 04:15:18;;;;;;;9.48;2.50;;;17.40;31.70;;;;;;5074748;28;20397;-74
2023/06/28 04:17:44;;;;;;;7.10;3.05;;;17.30;31.20;;;;;;5074232;28;20868;-76
2023/06/28 04:20:10;;;;;;;7.88;3.05;;;17.40;31.60;;;;;;5073982;28;20421;-77
2023/06/28 04:22:36;;;;;;;8.15;3.00;;;17.50;31.40;;;;;;5073597;28;20427;-75
2023/06/28 04:25:02;;;;;;;6.20;3.00;;;17.60;30.80;;;;;;5073749;28;20435;-75
2023/06/28 04:27:28;;;;;;;8.45;2.95;;;17.80;29.70;;;;;;5074413;28;20422;-76
2023/06/28 04:29:53;;;;;;;5.97;2.53;;;18.00;29.40;;;;;;5074707;28;20380;-76
2023/06/28 04:32:26;;;;;;;5.23;3.00;;;18.10;28.50;;;;;;5055845;28;20432;-76
2023/06/28 04:34:56;;;;;;;7.38;2.88;;;18.30;26.90;;;;;;5074461;28;20494;-76
2023/06/28 04:37:22;;;;;;;6.22;2.30;;;18.30;26.90;;;;;;5074092;28;20388;-75
2023/06/28 04:39:48;;;;;;;4.65;2.40;;;18.40;26.00;;;;;;5073720;28;20384;-76
2023/06/28 04:42:16;;;;;;;6.00;2.55;;;18.50;25.80;;;;;;5054920;28;20741;-76
2023/06/28 04:44:47;;;;;;;6.38;2.65;;;18.50;25.90;;;;;;5082488;28;20391;-76
2023/06/28 04:47:15;;;;;;;4.15;2.70;;;18.60;26.70;;;;;;5086497;28;20380;-76
2023/06/28 04:49:44;;;;;;;10.18;2.60;;;18.60;25.60;;;;;;5062648;28;20392;-76
2023/06/28 04:52:12;;;;;;;7.63;2.33;;;18.70;25.00;;;;;;5078064;28;20413;-75
2023/06/28 04:54:39;;;;;;;6.10;2.58;;;18.70;24.20;;;;;;5078833;28;20376;-75
2023/06/28 04:57:04;;;;;;;4.10;2.33;;;18.70;24.30;;;;;;5086854;28;20399;-76
2023/06/28 04:59:30;;;;;;;8.82;2.85;;;18.70;24.70;;;;;;5070714;28;20376;-75
2023/06/28 05:01:56;;;;;;;5.53;2.50;;;18.60;25.00;;;;;;5087518;28;20388;-76
2023/06/28 05:04:21;;;;;;;9.67;3.00;;;18.60;24.90;;;;;;5087277;28;20395;-75
2023/06/28 05:06:47;;;;;;;9.30;2.90;;;18.60;25.00;;;;;;5081351;28;20418;-75
2023/06/28 05:09:12;;;;;;;7.10;2.63;;;18.50;25.40;;;;;;5083107;28;20383;-76
2023/06/28 05:11:38;;;;;;;4.60;2.50;;;18.50;25.60;;;;;;5085265;28;20380;-77
2023/06/28 05:14:03;;;;;;;7.60;3.10;;;18.50;25.70;;;;;;5073317;28;20430;-77
2023/06/28 05:16:29;;;;;;;5.87;2.70;;;18.50;25.40;;;;;;5073002;28;20380;-77
2023/06/28 05:18:54;;;;;;;11.10;3.92;;;18.50;25.40;;;;;;5074080;28;20388;-77
2023/06/28 05:21:20;;;;;;;11.90;3.53;;;18.50;25.90;;;;;;5072708;28;20395;-76
2023/06/28 05:23:45;;;;;;;8.80;2.90;;;18.60;26.20;;;;;;5073850;28;20384;-76
2023/06/28 05:26:11;;;;;;;13.85;3.28;;;18.70;25.40;;;;;;5073129;28;20410;-76
2023/06/28 05:28:36;;;;;;;10.00;2.80;;;18.60;25.50;;;;;;5073283;28;20402;-77
2023/06/28 05:31:02;;;;;;;5.60;2.50;;;18.50;26.60;;;;;;5072454;28;20752;-75
2023/06/28 05:33:27;;;;;;;9.25;2.67;;;18.60;25.10;;;;;;5054756;28;20760;-76
2023/06/28 05:35:53;;;;;;;5.00;2.40;;;18.60;25.30;;;;;;5072621;28;20864;-77
2023/06/28 05:38:18;;;;;;;7.80;2.57;;;18.70;24.60;;;;;;5072512;28;20393;-76
2023/06/28 05:40:44;;;;;;;5.18;2.50;;;18.70;25.00;;;;;;5072826;28;20384;-76
2023/06/28 05:43:09;;;;;;;5.67;2.40;;;18.60;25.30;;;;;;5072109;28;20448;-76
2023/06/28 05:45:35;;;;;;;8.27;2.80;;;18.70;24.80;;;;;;5072577;28;20419;-77
2023/06/28 05:48:01;;;;;;;7.10;2.50;;;18.70;25.30;;;;;;5054084;28;20403;-76
2023/06/28 05:50:27;;;;;;;9.70;2.60;;;18.60;24.80;;;;;;5071550;28;20934;-76
2023/06/28 05:52:52;;;;;;;12.27;3.00;;;18.60;24.30;;;;;;5071905;28;20383;-76
2023/06/28 05:55:18;;;;;;;9.00;2.93;;;18.70;24.80;;;;;;5053787;28;20441;-76
2023/06/28 05:57:47;;;;;;;5.87;2.60;;;18.80;24.60;;;;;;5072361;28;20392;-77
2023/06/28 06:00:13;;;;;;;6.07;2.42;;;18.80;24.70;;;;;;5054039;28;20429;-76
2023/06/28 06:02:39;;;;;;;6.60;2.70;;;18.90;25.00;;;;;;5070780;28;20384;-77
2023/06/28 06:05:05;;;;;;;7.32;2.58;;;18.80;24.10;;;;;;5072172;28;21052;-77
2023/06/28 06:07:32;;;;;;;9.65;2.78;;;18.80;24.40;;;;;;5071653;28;20376;-77
2023/06/28 06:09:57;;;;;;;8.88;2.80;;;18.80;24.30;;;;;;5072064;28;20407;-76
2023/06/28 06:12:26;;;;;;;10.70;3.40;;;18.90;23.70;;;;;;5071679;28;20382;-76
2023/06/28 06:14:51;;;;;;;7.22;2.72;;;18.80;23.60;;;;;;5055106;28;20395;-76
2023/06/28 06:17:18;;;;;;;4.40;2.70;;;18.80;23.90;;;;;;5073369;28;20876;-76
2023/06/28 06:19:43;;;;;;;6.72;2.90;;;18.80;24.00;;;;;;5072791;28;20710;-76
2023/06/28 06:22:09;;;;;;;14.47;2.90;;;18.80;24.10;;;;;;5054239;28;20431;-75
2023/06/28 06:24:34;;;;;;;7.90;2.90;;;18.80;24.30;;;;;;5054747;28;20393;-77
2023/06/28 06:27:00;;;;;;;11.15;2.88;;;18.80;24.30;;;;;;5073857;28;20383;-76
2023/06/28 06:29:25;;;;;;;10.80;3.10;;;18.80;24.40;;;;;;5073375;28;20428;-75
2023/06/28 06:31:51;;;;;;;10.40;2.93;;;18.90;24.30;;;;;;5072145;28;20387;-76
2023/06/28 06:34:16;;;;;;;8.95;2.85;;;18.90;24.10;;;;;;5072152;28;20432;-76
2023/06/28 06:36:42;;;;;;;13.17;3.10;;;18.90;24.30;;;;;;5072024;28;20599;-76
2023/06/28 06:39:08;;;;;;;8.40;3.40;;;18.90;24.20;;;;;;5072826;28;20390;-75
2023/06/28 06:41:33;;;;;;;8.18;3.40;;;18.90;25.00;;;;;;5072670;28;20751;-76
2023/06/28 06:43:59;;;;;;;14.80;4.00;;;18.80;25.70;;;;;;5073617;28;20890;-76
2023/06/28 06:46:24;;;;;;;10.47;2.97;;;18.90;26.30;;;;;;5076261;28;20387;-76
2023/06/28 06:48:50;;;;;;;11.32;2.97;;;18.90;25.80;;;;;;5080564;28;20474;-77
2023/06/28 06:51:16;;;;;;;6.00;3.10;;;18.90;25.60;;;;;;5078798;28;20460;-76
2023/06/28 06:53:41;;;;;;;11.43;3.00;;;19.20;26.30;;;;;;5082880;28;20450;-76
2023/06/28 06:56:07;;;;;;;12.40;3.30;;;19.50;25.50;;;;;;5080435;28;20384;-76
2023/06/28 06:58:33;;;;;;;10.73;3.08;;;19.70;25.80;;;;;;5080172;28;20411;-77
2023/06/28 07:00:59;;;;;;;11.85;4.78;;;20.00;24.20;;;;;;5082470;28;20391;-75
2023/06/28 07:03:24;;;;;;;10.60;2.90;;;20.60;24.30;;;;;;5078861;28;20745;-75
2023/06/28 07:05:50;;;;;;;8.67;3.00;;;20.70;21.70;;;;;;5079259;28;20511;-76
2023/06/28 07:08:16;;;;;;;8.20;2.80;;;20.90;21.40;;;;;;5086612;28;20473;-75
2023/06/28 07:10:42;;;;;;;7.13;2.47;;;20.90;20.00;;;;;;5083927;28;20851;-76
2023/06/28 07:13:09;;;;;;;10.20;3.10;;;20.90;20.00;;;;;;5066793;28;20392;-76
2023/06/28 07:15:34;;;;;;;14.85;3.17;;;20.90;19.90;;;;;;5079384;28;20388;-76
2023/06/28 07:18:00;;;;;;;8.93;3.07;;;20.80;19.90;;;;;;5080053;28;20426;-76
2023/06/28 07:20:25;;;;;;;6.40;2.37;;;20.70;19.70;;;;;;5080759;28;20467;-76
2023/06/28 07:22:51;;;;;;;10.50;2.87;;;20.70;19.60;;;;;;5079930;28;20482;-76
2023/06/28 07:25:16;;;;;;;8.90;2.83;;;20.60;19.70;;;;;;5080139;28;20614;-75
2023/06/28 07:27:42;;;;;;;6.10;2.50;;;20.60;20.00;;;;;;5082062;28;20391;-77
2023/06/28 07:30:08;;;;;;;6.47;2.60;;;20.40;19.10;;;;;;5084160;28;20388;-76
2023/06/28 07:32:34;;;;;;;4.70;2.30;;;20.30;19.60;;;;;;5082794;28;20427;-76
2023/06/28 07:35:00;;;;;;;9.80;2.70;;;20.40;19.50;;;;;;5084243;28;20752;-77
2023/06/28 07:37:26;;;;;;;9.77;2.30;;;20.70;19.30;;;;;;5088098;28;20391;-76
2023/06/28 07:39:51;;;;;;;5.32;2.45;;;20.80;18.50;;;;;;5083010;28;20448;-75
2023/06/28 07:42:19;;;;;;;7.22;2.30;;;20.90;18.70;;;;;;5080214;28;20380;-76
2023/06/28 07:44:44;;;;;;;3.83;2.22;;;21.10;18.20;;;;;;5080846;28;20394;-76
2023/06/28 07:47:10;;;;;;;10.20;2.40;;;21.30;17.30;;;;;;5080474;28;20401;-76
2023/06/28 07:49:36;;;;;;;7.53;2.78;;;21.50;17.10;;;;;;5079202;28;20384;-77
2023/06/28 07:52:02;;;;;;;5.50;2.43;;;21.50;17.30;;;;;;5078152;28;20376;-77
2023/06/28 07:54:27;;;;;;;6.20;2.30;;;21.50;17.20;;;;;;5061161;28;20754;-76
2023/06/28 07:56:53;;;;;;;6.60;2.30;;;21.50;17.60;;;;;;5079578;28;20470;-77
2023/06/28 07:59:20;;;;;;;9.60;2.40;;;21.40;18.40;;;;;;5059581;28;20445;-75
2023/06/28 08:01:47;;;;;;;8.77;2.65;;;21.20;18.70;;;;;;5077528;28;20466;-76
2023/06/28 08:04:15;;;;;;;6.60;2.38;;;21.20;18.90;;;;;;5078354;28;20399;-77
2023/06/28 08:06:41;;;;;;;5.28;2.80;;;21.10;19.40;;;;;;5074486;28;20457;-76
2023/06/28 08:09:07;;;;;;;10.60;2.80;;;21.30;19.80;;;;;;5074224;28;20436;-76
2023/06/28 08:11:32;;;;;;;4.90;2.43;;;21.40;19.20;;;;;;5074097;28;20567;-74
2023/06/28 08:13:58;;;;;;;7.82;3.20;;;21.30;19.10;;;;;;5076914;28;20453;-77
2023/06/28 08:16:23;;;;;;;6.70;2.53;;;21.30;18.90;;;;;;5078216;28;20387;-77
2023/06/28 08:18:49;;;;;;;7.60;2.78;;;21.60;18.60;;;;;;5078866;28;20388;-77
2023/06/28 08:21:14;;;;;;;11.37;3.10;;;21.90;18.30;;;;;;5076901;28;20403;-76
2023/06/28 08:23:40;;;;;;;8.73;2.97;;;22.00;18.10;;;;;;5060407;28;20391;-76
2023/06/28 08:26:06;;;;;;;6.37;2.77;;;22.00;18.20;;;;;;5073846;28;20473;-76
2023/06/28 08:28:32;;;;;;;5.38;2.90;;;21.90;17.90;;;;;;5074437;28;20457;-76
2023/06/28 08:30:57;;;;;;;7.93;2.90;;;21.70;17.90;;;;;;5073237;28;20487;-76
2023/06/28 08:33:24;;;;;;;4.75;2.30;;;21.40;18.40;;;;;;5074283;28;20462;-76
2023/06/28 08:35:50;;;;;;;7.60;2.58;;;21.20;18.70;;;;;;5073757;28;20388;-75
2023/06/28 08:38:16;;;;;;;7.32;2.72;;;21.10;19.20;;;;;;5073764;28;20387;-76
2023/06/28 08:40:41;;;;;;;6.43;2.60;;;21.20;19.70;;;;;;5073204;28;20471;-76
2023/06/28 08:43:10;;;;;;;10.15;3.28;;;21.10;20.60;;;;;;5055274;28;20382;-75
2023/06/28 08:45:36;;;;;;;7.15;3.50;;;21.10;21.00;;;;;;5073130;28;20888;-76
2023/06/28 08:48:04;;;;;;;7.60;2.70;;;21.00;22.00;;;;;;5073954;28;20420;-76
2023/06/28 08:50:30;;;;;;;9.45;3.55;;;21.00;20.80;;;;;;5073783;28;20770;-76
2023/06/28 08:52:56;;;;;;;9.35;3.28;;;20.90;21.30;;;;;;5073501;28;20390;-76
2023/06/28 08:55:23;;;;;;;8.77;3.50;;;20.80;21.40;;;;;;5073149;28;20469;-76
2023/06/28 08:57:49;;;;;;;8.40;3.10;;;20.80;21.60;;;;;;5073599;28;20871;-77
2023/06/28 09:00:15;;;;;;;10.87;3.30;;;20.70;21.90;;;;;;5073930;28;20419;-75
2023/06/28 09:02:42;;;;;;;9.68;3.70;;;20.70;21.30;;;;;;5072614;28;20844;-77
2023/06/28 09:05:09;;;;;;;7.57;3.83;;;20.70;21.20;;;;;;5072923;28;20404;-75
2023/06/28 09:07:40;;;;;;;6.60;3.42;;;20.70;21.20;;;;;;5072895;28;20384;-76
2023/06/28 09:10:10;;;;;;;11.57;3.30;;;20.70;21.70;;;;;;5054971;28;20386;-76
2023/06/28 09:12:37;;;;;;;7.65;3.03;;;20.70;20.90;;;;;;5055659;28;20383;-77
2023/06/28 09:15:03;;;;;;;9.55;3.25;;;20.80;20.80;;;;;;5072795;28;20415;-76
2023/06/28 09:17:29;;;;;;;9.63;3.72;;;20.90;20.40;;;;;;5055151;28;20406;-76
2023/06/28 09:20:01;;;;;;;8.70;3.10;;;21.10;20.70;;;;;;5072761;28;20458;-76
2023/06/28 09:22:27;;;;;;;10.57;3.83;;;21.00;20.30;;;;;;5074370;28;20396;-75
2023/06/28 09:24:53;;;;;;;8.02;3.42;;;21.00;20.70;;;;;;5043378;28;20467;-78
2023/06/28 09:27:19;;;;;;;9.63;3.45;;;21.00;20.40;;;;;;5059501;28;20388;-76
2023/06/28 09:29:58;;;;;;;11.05;3.60;;;21.20;20.30;;;;;;5059805;28;20384;-76
2023/06/28 09:32:23;;;;;;;7.72;3.88;;;21.40;20.00;;;;;;5080971;28;20376;-76
2023/06/28 09:34:49;;;;;;;7.93;3.20;;;21.40;19.70;;;;;;5084345;28;20422;-75
2023/06/28 09:37:15;;;;;;;6.82;3.63;;;21.30;19.80;;;;;;5086828;28;20399;-75
2023/06/28 09:39:41;;;;;;;7.88;3.83;;;21.30;20.00;;;;;;5087331;28;20384;-75
2023/06/28 09:42:06;;;;;;;10.10;3.60;;;21.40;19.90;;;;;;5086110;28;20387;-76
2023/06/28 09:44:32;;;;;;;9.70;3.27;;;21.50;19.80;;;;;;5088080;28;20391;-75
2023/06/28 09:47:03;;;;;;;8.73;3.50;;;21.50;19.80;;;;;;5088094;28;21026;-74
2023/06/28 09:49:29;;;;;;;11.20;3.90;;;21.80;19.70;;;;;;5070051;28;20384;-76
2023/06/28 09:52:06;;;;;;;7.57;3.83;;;22.10;19.20;;;;;;5086047;28;20380;-75
2023/06/28 09:54:44;;;;;;;9.03;3.63;;;22.40;18.60;;;;;;5087459;28;20479;-77
2023/06/28 09:57:10;;;;;;;10.85;3.38;;;22.50;18.80;;;;;;5088601;28;20405;-77
2023/06/28 09:59:36;;;;;;;8.02;3.40;;;22.60;18.30;;;;;;5088769;28;20388;-76
2023/06/28 10:02:06;;;;;;;9.13;3.50;;;22.40;18.30;;;;;;5089947;28;20821;-76
2023/06/28 10:04:34;;;;;;;8.07;4.00;;;22.50;18.30;;;;;;5083053;28;20376;-76
2023/06/28 10:07:02;;;;;;;12.25;3.63;;;22.30;18.90;;;;;;5083184;28;20440;-76
2023/06/28 10:09:39;;;;;;;8.65;3.60;;;22.30;19.00;;;;;;5084704;28;20409;-75
2023/06/28 10:12:21;;;;;;;8.07;3.67;;;22.30;18.90;;;;;;5064278;28;20418;-76
2023/06/28 10:14:55;;;;;;;8.45;3.78;;;22.30;18.70;;;;;;5082877;28;20384;-76
2023/06/28 10:17:21;;;;;;;10.77;4.10;;;22.50;18.60;;;;;;5081349;28;20443;-77
2023/06/28 10:19:48;;;;;;;10.38;3.85;;;22.70;18.30;;;;;;5064235;28;20384;-76
2023/06/28 10:22:15;;;;;;;10.90;4.03;;;22.90;17.90;;;;;;5060479;28;20392;-76
2023/06/28 10:24:42;;;;;;;10.70;4.10;;;23.10;18.10;;;;;;5077725;28;20387;-76
2023/06/28 10:27:09;;;;;;;11.77;4.13;;;23.10;17.80;;;;;;5077801;28;20403;-77
2023/06/28 10:29:35;;;;;;;9.57;4.22;;;23.00;17.60;;;;;;5078426;28;20390;-76
2023/06/28 10:32:02;;;;;;;11.90;3.80;;;23.00;17.70;;;;;;5077073;28;20425;-76
2023/06/28 10:34:28;;;;;;;8.25;3.92;;;22.90;17.80;;;;;;5078221;28;20375;-76
2023/06/28 10:36:56;;;;;;;6.35;3.70;;;22.90;18.00;;;;;;5077830;28;20411;-76
2023/06/28 10:39:21;;;;;;;14.65;4.00;;;22.80;18.00;;;;;;5078357;28;20795;-76
2023/06/28 10:41:55;;;;;;;9.68;3.78;;;22.90;18.10;;;;;;5076213;28;20381;-75
2023/06/28 10:44:20;;;;;;;11.68;4.00;;;23.00;18.00;;;;;;5077605;28;20391;-75
2023/06/28 10:46:46;;;;;;;10.25;3.70;;;22.90;17.80;;;;;;5076701;28;20404;-76
2023/06/28 10:49:12;;;;;;;11.87;4.60;;;22.90;17.80;;;;;;5058143;28;20788;-76
2023/06/28 10:51:37;;;;;;;10.32;4.63;;;22.90;17.70;;;;;;5078876;28;20569;-76
2023/06/28 10:54:14;;;;;;;11.30;4.00;;;22.90;17.50;;;;;;5066025;28;20950;-77
2023/06/28 10:57:14;;;;;;;10.82;3.60;;;22.90;17.30;;;;;;5085727;28;20600;-76
2023/06/28 10:59:45;;;;;;;13.93;5.78;;;23.20;16.80;;;;;;5083829;28;20390;-76
2023/06/28 11:02:10;;;;;;;13.10;4.10;;;23.30;16.60;;;;;;5086180;28;20439;-75
2023/06/28 11:04:56;;;;;;;15.40;4.20;;;23.30;16.60;;;;;;5084183;28;20403;-76
2023/06/28 11:07:23;;;;;;;10.40;4.43;;;23.40;16.40;;;;;;5081812;28;20395;-77
2023/06/28 11:10:14;;;;;;;9.30;3.53;;;23.40;16.70;;;;;;5079248;28;20376;-76
2023/06/28 11:12:40;;;;;;;9.82;3.58;;;23.40;16.00;;;;;;5083739;28;20446;-77
2023/06/28 11:15:07;;;;;;;11.30;5.13;;;23.40;16.40;;;;;;5084643;28;20752;-76
2023/06/28 11:17:33;;;;;;;9.18;4.00;;;23.50;16.30;;;;;;5083585;28;20379;-75
2023/06/28 11:20:13;;;;;;;12.97;4.40;;;23.50;16.30;;;;;;5066797;28;20398;-76
2023/06/28 11:22:52;;;;;;;10.70;4.00;;;23.80;16.30;;;;;;5091951;28;20718;-76
2023/06/28 11:25:28;;;;;;;13.30;4.10;;;24.10;15.80;;;;;;5092122;28;20407;-75
2023/06/28 11:27:57;;;;;;;9.93;3.88;;;24.30;15.00;;;;;;5092382;28;20387;-74
2023/06/28 11:30:46;;;;;;;15.88;3.80;;;24.20;14.60;;;;;;5089318;28;20402;-76
2023/06/28 11:33:12;;;;;;;11.43;4.00;;;24.50;14.30;;;;;;5088340;28;20372;-76
2023/06/28 11:35:39;;;;;;;11.13;4.30;;;24.50;14.70;;;;;;5091103;28;20455;-75
2023/06/28 11:38:05;;;;;;;12.05;4.20;;;24.60;14.50;;;;;;5091887;28;20384;-75
2023/06/28 11:40:31;;;;;;;8.30;3.70;;;24.80;15.10;;;;;;5092713;28;20390;-76
2023/06/28 11:42:56;;;;;;;10.20;3.70;;;25.00;13.90;;;;;;5091654;28;20403;-76
2023/06/28 11:45:22;;;;;;;8.53;4.10;;;25.30;13.40;;;;;;5092285;28;20407;-75
2023/06/28 11:47:48;;;;;;;12.18;5.50;;;25.20;13.30;;;;;;5092022;28;20376;-75
2023/06/28 11:50:15;;;;;;;11.57;5.15;;;25.10;13.60;;;;;;5091150;28;20394;-76
2023/06/28 11:52:46;;;;;;;15.52;7.15;;;25.20;13.10;;;;;;5090138;28;20547;-76
2023/06/28 11:55:17;;;;;;;11.98;5.30;;;25.10;13.80;;;;;;5084975;28;20384;-75
2023/06/28 11:57:44;;;;;;;12.13;4.50;;;24.80;14.20;;;;;;5083702;28;20384;-76
2023/06/28 12:00:11;;;;;;;13.45;4.75;;;24.70;14.50;;;;;;5084726;28;20384;-76
2023/06/28 12:02:50;;;;;;;10.35;5.93;;;24.70;14.70;;;;;;5090533;28;20391;-75
2023/06/28 12:05:17;;;;;;;12.45;4.50;;;25.00;13.70;;;;;;5086642;28;20407;-76
2023/06/28 12:07:45;;;;;;;16.55;4.82;;;25.00;13.80;;;;;;5088951;28;20395;-77
2023/06/28 12:10:11;;;;;;;10.38;4.32;;;25.20;13.00;;;;;;5088802;28;20456;-78
2023/06/28 12:12:38;;;;;;;9.93;4.00;;;25.20;13.20;;;;;;5084326;28;20382;-75
2023/06/28 12:15:05;;;;;;;10.93;4.07;;;25.30;13.40;;;;;;5083511;28;20387;-77
2023/06/28 12:17:37;;;;;;;13.27;4.60;;;25.40;13.40;;;;;;5085722;28;20478;-76
2023/06/28 12:20:03;;;;;;;10.30;4.30;;;25.40;12.90;;;;;;5085432;28;20411;-76
2023/06/28 12:22:38;;;;;;;11.68;4.43;;;25.40;12.60;;;;;;5085009;28;20410;-77
2023/06/28 12:25:04;;;;;;;11.47;4.00;;;25.60;12.50;;;;;;5083868;28;20400;-77
2023/06/28 12:27:30;;;;;;;14.07;4.60;;;25.90;12.10;;;;;;5082495;28;20395;-77
2023/06/28 12:29:56;;;;;;;7.88;4.22;;;26.20;12.30;;;;;;5081816;28;20856;-76
2023/06/28 12:32:23;;;;;;;12.18;3.90;;;26.60;11.30;;;;;;5080809;28;20380;-77
2023/06/28 12:34:50;;;;;;;12.73;3.95;;;26.70;10.70;;;;;;5080519;28;20443;-76
2023/06/28 12:37:16;;;;;;;10.30;3.90;;;26.90;10.50;;;;;;5081543;28;20372;-76
2023/06/28 12:39:42;;;;;;;9.93;3.90;;;26.80;10.60;;;;;;5079724;28;20414;-77
2023/06/28 12:42:17;;;;;;;12.35;4.10;;;27.00;10.50;;;;;;5080294;28;20380;-76